sensor_id;sensor_type;location;lat;lon;timestamp;pressure;altitude;pressure_sealevel;temperature;humidity
85850;BME280;76337;42.850;-0.560;2024-03-02T00:01:10;87919.84;;;1.43;88.37
85850;BME280;76337;42.850;-0.560;2024-03-02T00:03:37;87913.63;;;1.44;88.17
85850;BME280;76337;42.850;-0.560;2024-03-02T00:06:04;87919.69;;;1.47;87.35
85850;BME280;76337;42.850;-0.560;2024-03-02T00:08:30;87911.63;;;1.43;88.61
85850;BME280;76337;42.850;-0.560;2024-03-02T00:10:58;87923.59;;;1.54;87.61
85850;BME280;76337;42.850;-0.560;2024-03-02T00:13:24;87916.03;;;1.55;87.28
85850;BME280;76337;42.850;-0.560;2024-03-02T00:15:54;87905.22;;;1.50;88.23
85850;BME280;76337;42.850;-0.560;2024-03-02T00:18:26;87903.00;;;1.34;87.77
85850;BME280;76337;42.850;-0.560;2024-03-02T00:20:53;87895.38;;;1.37;88.44
85850;BME280;76337;42.850;-0.560;2024-03-02T00:23:20;87893.63;;;1.48;87.71
85850;BME280;76337;42.850;-0.560;2024-03-02T00:25:49;87902.19;;;1.38;89.47
85850;BME280;76337;42.850;-0.560;2024-03-02T00:28:24;87885.13;;;1.15;88.50
85850;BME280;76337;42.850;-0.560;2024-03-02T00:31:11;87891.03;;;1.23;89.75
85850;BME280;76337;42.850;-0.560;2024-03-02T00:33:43;87903.88;;;1.29;89.24
85850;BME280;76337;42.850;-0.560;2024-03-02T00:36:10;87886.47;;;1.36;88.90
85850;BME280;76337;42.850;-0.560;2024-03-02T00:38:53;87887.63;;;1.43;89.04
85850;BME280;76337;42.850;-0.560;2024-03-02T00:41:34;87887.47;;;1.68;87.53
85850;BME280;76337;42.850;-0.560;2024-03-02T00:44:06;87868.88;;;1.29;88.49
85850;BME280;76337;42.850;-0.560;2024-03-02T00:46:36;87880.84;;;1.40;89.24
85850;BME280;76337;42.850;-0.560;2024-03-02T00:49:06;87879.31;;;1.45;88.39
85850;BME280;76337;42.850;-0.560;2024-03-02T00:51:37;87874.00;;;1.60;88.02
85850;BME280;76337;42.850;-0.560;2024-03-02T00:54:07;87858.66;;;1.28;89.07
85850;BME280;76337;42.850;-0.560;2024-03-02T00:56:33;87863.16;;;1.37;89.44
85850;BME280;76337;42.850;-0.560;2024-03-02T00:59:00;87862.13;;;1.47;88.30
85850;BME280;76337;42.850;-0.560;2024-03-02T01:01:26;87866.94;;;1.46;88.63
85850;BME280;76337;42.850;-0.560;2024-03-02T01:03:52;87856.03;;;1.44;88.56
85850;BME280;76337;42.850;-0.560;2024-03-02T01:06:18;87855.56;;;1.38;89.39
85850;BME280;76337;42.850;-0.560;2024-03-02T01:08:44;87850.44;;;1.28;89.57
85850;BME280;76337;42.850;-0.560;2024-03-02T01:11:10;87850.03;;;1.40;89.14
85850;BME280;76337;42.850;-0.560;2024-03-02T01:13:36;87844.81;;;1.32;89.98
85850;BME280;76337;42.850;-0.560;2024-03-02T01:16:02;87846.78;;;1.35;89.47
85850;BME280;76337;42.850;-0.560;2024-03-02T01:18:29;87839.19;;;1.36;89.06
85850;BME280;76337;42.850;-0.560;2024-03-02T01:20:56;87831.72;;;1.34;88.94
85850;BME280;76337;42.850;-0.560;2024-03-02T01:23:22;87830.63;;;1.46;89.56
85850;BME280;76337;42.850;-0.560;2024-03-02T01:25:48;87829.50;;;1.39;89.49
85850;BME280;76337;42.850;-0.560;2024-03-02T01:28:14;87824.16;;;1.35;89.75
85850;BME280;76337;42.850;-0.560;2024-03-02T01:30:40;87821.31;;;1.58;88.73
85850;BME280;76337;42.850;-0.560;2024-03-02T01:33:06;87815.97;;;1.53;89.04
85850;BME280;76337;42.850;-0.560;2024-03-02T01:35:32;87817.56;;;1.46;88.66
85850;BME280;76337;42.850;-0.560;2024-03-02T01:37:58;87819.00;;;1.45;88.52
85850;BME280;76337;42.850;-0.560;2024-03-02T01:40:24;87806.81;;;1.40;89.05
85850;BME280;76337;42.850;-0.560;2024-03-02T01:42:52;87808.38;;;1.35;88.93
85850;BME280;76337;42.850;-0.560;2024-03-02T01:45:20;87795.53;;;1.30;89.72
85850;BME280;76337;42.850;-0.560;2024-03-02T01:47:46;87793.25;;;1.36;89.49
85850;BME280;76337;42.850;-0.560;2024-03-02T01:50:11;87790.16;;;1.46;88.87
85850;BME280;76337;42.850;-0.560;2024-03-02T01:52:39;87795.00;;;1.46;88.25
85850;BME280;76337;42.850;-0.560;2024-03-02T01:55:05;87787.69;;;1.38;88.80
85850;BME280;76337;42.850;-0.560;2024-03-02T01:57:32;87779.34;;;1.42;89.14
85850;BME280;76337;42.850;-0.560;2024-03-02T01:59:58;87780.59;;;1.45;88.83
85850;BME280;76337;42.850;-0.560;2024-03-02T02:02:24;87760.44;;;1.53;88.62
85850;BME280;76337;42.850;-0.560;2024-03-02T02:04:50;87754.66;;;1.42;88.40
85850;BME280;76337;42.850;-0.560;2024-03-02T02:07:15;87755.25;;;1.45;89.31
85850;BME280;76337;42.850;-0.560;2024-03-02T02:09:42;87760.44;;;1.53;88.82
85850;BME280;76337;42.850;-0.560;2024-03-02T02:12:09;87746.81;;;1.51;88.16
85850;BME280;76337;42.850;-0.560;2024-03-02T02:14:35;87733.47;;;1.60;87.64
85850;BME280;76337;42.850;-0.560;2024-03-02T02:17:01;87732.22;;;1.57;87.92
85850;BME280;76337;42.850;-0.560;2024-03-02T02:19:27;87731.41;;;1.60;88.29
85850;BME280;76337;42.850;-0.560;2024-03-02T02:21:53;87737.09;;;1.54;87.90
85850;BME280;76337;42.850;-0.560;2024-03-02T02:24:18;87724.06;;;1.55;88.36
85850;BME280;76337;42.850;-0.560;2024-03-02T02:26:44;87733.34;;;1.64;87.79
85850;BME280;76337;42.850;-0.560;2024-03-02T02:29:10;87730.72;;;1.60;88.09
85850;BME280;76337;42.850;-0.560;2024-03-02T02:31:38;87720.72;;;1.52;87.78
85850;BME280;76337;42.850;-0.560;2024-03-02T02:34:04;87720.06;;;1.51;88.04
85850;BME280;76337;42.850;-0.560;2024-03-02T02:36:32;87722.72;;;1.53;88.13
85850;BME280;76337;42.850;-0.560;2024-03-02T02:39:02;87712.63;;;1.67;87.34
85850;BME280;76337;42.850;-0.560;2024-03-02T02:41:30;87712.19;;;1.60;88.36
85850;BME280;76337;42.850;-0.560;2024-03-02T02:43:56;87704.94;;;1.52;88.08
85850;BME280;76337;42.850;-0.560;2024-03-02T02:46:21;87694.06;;;1.50;87.65
85850;BME280;76337;42.850;-0.560;2024-03-02T02:48:47;87699.63;;;1.48;88.24
85850;BME280;76337;42.850;-0.560;2024-03-02T02:51:13;87696.06;;;1.52;89.06
85850;BME280;76337;42.850;-0.560;2024-03-02T02:53:39;87690.56;;;1.52;88.65
85850;BME280;76337;42.850;-0.560;2024-03-02T02:56:07;87695.47;;;1.49;88.15
85850;BME280;76337;42.850;-0.560;2024-03-02T02:58:33;87692.56;;;1.53;88.17
85850;BME280;76337;42.850;-0.560;2024-03-02T03:00:58;87690.56;;;1.52;87.96
85850;BME280;76337;42.850;-0.560;2024-03-02T03:03:24;87670.69;;;1.51;87.98
85850;BME280;76337;42.850;-0.560;2024-03-02T03:05:50;87687.81;;;1.52;88.11
85850;BME280;76337;42.850;-0.560;2024-03-02T03:08:15;87688.41;;;1.55;88.44
85850;BME280;76337;42.850;-0.560;2024-03-02T03:10:42;87678.72;;;1.39;89.23
85850;BME280;76337;42.850;-0.560;2024-03-02T03:13:07;87667.88;;;1.53;88.04
85850;BME280;76337;42.850;-0.560;2024-03-02T03:15:35;87665.44;;;1.45;88.86
85850;BME280;76337;42.850;-0.560;2024-03-02T03:18:02;87662.03;;;1.45;89.04
85850;BME280;76337;42.850;-0.560;2024-03-02T03:20:29;87658.41;;;1.32;89.50
85850;BME280;76337;42.850;-0.560;2024-03-02T03:22:55;87658.34;;;1.34;89.39
85850;BME280;76337;42.850;-0.560;2024-03-02T03:25:21;87661.22;;;1.30;89.47
85850;BME280;76337;42.850;-0.560;2024-03-02T03:27:47;87660.72;;;1.25;89.46
85850;BME280;76337;42.850;-0.560;2024-03-02T03:30:13;87660.03;;;1.25;89.39
85850;BME280;76337;42.850;-0.560;2024-03-02T03:32:39;87661.16;;;1.32;89.43
85850;BME280;76337;42.850;-0.560;2024-03-02T03:35:05;87652.94;;;1.32;89.51
85850;BME280;76337;42.850;-0.560;2024-03-02T03:37:31;87648.94;;;1.29;89.16
85850;BME280;76337;42.850;-0.560;2024-03-02T03:40:00;87648.19;;;1.30;89.60
85850;BME280;76337;42.850;-0.560;2024-03-02T03:42:26;87647.00;;;1.25;89.76
85850;BME280;76337;42.850;-0.560;2024-03-02T03:44:52;87641.38;;;1.29;89.71
85850;BME280;76337;42.850;-0.560;2024-03-02T03:47:18;87635.44;;;1.23;89.82
85850;BME280;76337;42.850;-0.560;2024-03-02T03:49:43;87628.66;;;1.22;90.60
85850;BME280;76337;42.850;-0.560;2024-03-02T03:52:09;87630.03;;;1.39;89.99
85850;BME280;76337;42.850;-0.560;2024-03-02T03:54:35;87626.13;;;1.34;89.15
85850;BME280;76337;42.850;-0.560;2024-03-02T03:57:02;87625.44;;;1.34;89.67
85850;BME280;76337;42.850;-0.560;2024-03-02T03:59:28;87623.69;;;1.26;89.82
85850;BME280;76337;42.850;-0.560;2024-03-02T04:01:54;87612.25;;;1.38;88.54
85850;BME280;76337;42.850;-0.560;2024-03-02T04:04:19;87617.44;;;1.28;89.85
85850;BME280;76337;42.850;-0.560;2024-03-02T04:06:45;87613.72;;;1.54;87.75
85850;BME280;76337;42.850;-0.560;2024-03-02T04:09:11;87606.22;;;1.52;88.78
85850;BME280;76337;42.850;-0.560;2024-03-02T04:11:37;87592.97;;;1.40;87.79
85850;BME280;76337;42.850;-0.560;2024-03-02T04:14:02;87613.22;;;1.31;88.55
85850;BME280;76337;42.850;-0.560;2024-03-02T04:16:28;87615.09;;;1.18;89.61
85850;BME280;76337;42.850;-0.560;2024-03-02T04:18:55;87612.56;;;1.12;90.50
85850;BME280;76337;42.850;-0.560;2024-03-02T04:21:20;87596.28;;;1.08;89.98
85850;BME280;76337;42.850;-0.560;2024-03-02T04:23:46;87602.50;;;1.06;90.92
85850;BME280;76337;42.850;-0.560;2024-03-02T04:26:12;87607.97;;;1.06;90.30
85850;BME280;76337;42.850;-0.560;2024-03-02T04:28:37;87603.38;;;1.19;90.00
85850;BME280;76337;42.850;-0.560;2024-03-02T04:31:03;87610.84;;;1.21;89.53
85850;BME280;76337;42.850;-0.560;2024-03-02T04:33:29;87605.44;;;1.19;89.43
85850;BME280;76337;42.850;-0.560;2024-03-02T04:35:54;87612.03;;;1.26;90.02
85850;BME280;76337;42.850;-0.560;2024-03-02T04:38:20;87610.78;;;1.23;89.26
85850;BME280;76337;42.850;-0.560;2024-03-02T04:40:47;87609.16;;;1.30;89.73
85850;BME280;76337;42.850;-0.560;2024-03-02T04:43:13;87610.34;;;1.16;90.35
85850;BME280;76337;42.850;-0.560;2024-03-02T04:45:42;87599.38;;;1.16;89.88
85850;BME280;76337;42.850;-0.560;2024-03-02T04:48:08;87578.88;;;1.15;89.98
85850;BME280;76337;42.850;-0.560;2024-03-02T04:50:34;87568.50;;;1.18;89.77
85850;BME280;76337;42.850;-0.560;2024-03-02T04:53:00;87568.44;;;1.20;89.65
85850;BME280;76337;42.850;-0.560;2024-03-02T04:55:25;87573.38;;;1.15;89.92
85850;BME280;76337;42.850;-0.560;2024-03-02T04:58:11;87570.06;;;1.13;89.97
85850;BME280;76337;42.850;-0.560;2024-03-02T05:00:36;87558.94;;;1.17;90.26
85850;BME280;76337;42.850;-0.560;2024-03-02T05:03:03;87552.06;;;1.18;89.36
85850;BME280;76337;42.850;-0.560;2024-03-02T05:05:28;87550.78;;;1.15;89.68
85850;BME280;76337;42.850;-0.560;2024-03-02T05:07:54;87541.38;;;1.10;90.25
85850;BME280;76337;42.850;-0.560;2024-03-02T05:10:20;87528.44;;;1.08;90.05
85850;BME280;76337;42.850;-0.560;2024-03-02T05:12:46;87537.50;;;1.05;90.47
85850;BME280;76337;42.850;-0.560;2024-03-02T05:15:22;87534.13;;;1.21;89.57
85850;BME280;76337;42.850;-0.560;2024-03-02T05:17:48;87532.78;;;1.20;89.65
85850;BME280;76337;42.850;-0.560;2024-03-02T05:20:13;87531.88;;;1.25;89.13
85850;BME280;76337;42.850;-0.560;2024-03-02T05:22:39;87523.41;;;1.15;90.22
85850;BME280;76337;42.850;-0.560;2024-03-02T05:25:06;87519.66;;;1.22;89.20
85850;BME280;76337;42.850;-0.560;2024-03-02T05:27:32;87524.88;;;1.12;89.82
85850;BME280;76337;42.850;-0.560;2024-03-02T05:29:58;87514.13;;;1.24;89.58
85850;BME280;76337;42.850;-0.560;2024-03-02T05:32:24;87508.69;;;1.22;89.50
85850;BME280;76337;42.850;-0.560;2024-03-02T05:34:50;87508.84;;;1.18;90.02
85850;BME280;76337;42.850;-0.560;2024-03-02T05:37:16;87511.44;;;1.22;89.68
85850;BME280;76337;42.850;-0.560;2024-03-02T05:39:42;87512.28;;;1.19;90.13
85850;BME280;76337;42.850;-0.560;2024-03-02T05:42:09;87514.13;;;1.24;89.58
85850;BME280;76337;42.850;-0.560;2024-03-02T05:44:35;87517.50;;;1.25;88.81
85850;BME280;76337;42.850;-0.560;2024-03-02T05:47:02;87508.22;;;1.34;88.54
85850;BME280;76337;42.850;-0.560;2024-03-02T05:49:28;87510.63;;;1.26;88.80
85850;BME280;76337;42.850;-0.560;2024-03-02T05:51:54;87509.63;;;1.33;88.71
85850;BME280;76337;42.850;-0.560;2024-03-02T05:54:20;87514.03;;;1.26;89.35
85850;BME280;76337;42.850;-0.560;2024-03-02T05:56:45;87502.91;;;1.30;89.08
85850;BME280;76337;42.850;-0.560;2024-03-02T05:59:11;87500.25;;;1.28;89.29
85850;BME280;76337;42.850;-0.560;2024-03-02T06:04:05;87491.53;;;1.24;89.89
85850;BME280;76337;42.850;-0.560;2024-03-02T06:06:31;87492.03;;;1.28;89.63
85850;BME280;76337;42.850;-0.560;2024-03-02T06:09:00;87490.09;;;1.25;90.02
85850;BME280;76337;42.850;-0.560;2024-03-02T06:11:26;87487.34;;;1.25;89.79
85850;BME280;76337;42.850;-0.560;2024-03-02T06:13:51;87480.06;;;1.19;89.64
85850;BME280;76337;42.850;-0.560;2024-03-02T06:16:17;87491.00;;;1.19;90.00
85850;BME280;76337;42.850;-0.560;2024-03-02T06:18:43;87493.44;;;1.27;89.62
85850;BME280;76337;42.850;-0.560;2024-03-02T06:21:08;87493.28;;;1.31;88.93
85850;BME280;76337;42.850;-0.560;2024-03-02T06:23:34;87497.59;;;1.26;89.29
85850;BME280;76337;42.850;-0.560;2024-03-02T06:26:00;87494.19;;;1.26;89.71
85850;BME280;76337;42.850;-0.560;2024-03-02T06:28:28;87487.16;;;1.31;88.66
85850;BME280;76337;42.850;-0.560;2024-03-02T06:30:54;87482.31;;;1.31;88.81
85850;BME280;76337;42.850;-0.560;2024-03-02T06:33:20;87486.03;;;1.24;88.94
85850;BME280;76337;42.850;-0.560;2024-03-02T06:35:45;87490.44;;;1.17;89.87
85850;BME280;76337;42.850;-0.560;2024-03-02T06:38:11;87486.59;;;1.10;90.12
85850;BME280;76337;42.850;-0.560;2024-03-02T06:40:37;87472.16;;;1.11;90.82
85850;BME280;76337;42.850;-0.560;2024-03-02T06:43:05;87474.16;;;1.13;89.54
85850;BME280;76337;42.850;-0.560;2024-03-02T06:45:30;87474.00;;;1.17;89.82
85850;BME280;76337;42.850;-0.560;2024-03-02T06:47:56;87465.00;;;1.18;89.84
85850;BME280;76337;42.850;-0.560;2024-03-02T06:50:22;87446.50;;;1.19;89.36
85850;BME280;76337;42.850;-0.560;2024-03-02T06:52:48;87447.97;;;1.16;90.17
85850;BME280;76337;42.850;-0.560;2024-03-02T06:55:13;87432.28;;;1.14;90.02
85850;BME280;76337;42.850;-0.560;2024-03-02T06:57:39;87430.06;;;1.19;90.03
85850;BME280;76337;42.850;-0.560;2024-03-02T07:00:05;87415.94;;;1.12;90.50
85850;BME280;76337;42.850;-0.560;2024-03-02T07:02:34;87416.78;;;1.25;90.12
85850;BME280;76337;42.850;-0.560;2024-03-02T07:05:02;87416.78;;;1.25;89.68
85850;BME280;76337;42.850;-0.560;2024-03-02T07:07:28;87415.50;;;1.22;90.01
85850;BME280;76337;42.850;-0.560;2024-03-02T07:09:53;87424.00;;;1.33;89.05
85850;BME280;76337;42.850;-0.560;2024-03-02T07:12:19;87410.81;;;1.37;88.82
85850;BME280;76337;42.850;-0.560;2024-03-02T07:14:45;87406.06;;;1.36;89.00
85850;BME280;76337;42.850;-0.560;2024-03-02T07:17:31;87403.66;;;1.44;88.60
85850;BME280;76337;42.850;-0.560;2024-03-02T07:19:57;87397.94;;;1.50;87.73
85850;BME280;76337;42.850;-0.560;2024-03-02T07:22:23;87403.22;;;1.38;89.07
85850;BME280;76337;42.850;-0.560;2024-03-02T07:24:49;87399.50;;;1.45;87.33
85850;BME280;76337;42.850;-0.560;2024-03-02T07:27:15;87391.72;;;1.35;89.16
85850;BME280;76337;42.850;-0.560;2024-03-02T07:29:41;87396.00;;;1.30;88.23
85850;BME280;76337;42.850;-0.560;2024-03-02T07:32:08;87389.59;;;1.36;88.69
85850;BME280;76337;42.850;-0.560;2024-03-02T07:34:34;87389.69;;;1.34;89.33
85850;BME280;76337;42.850;-0.560;2024-03-02T07:37:00;87384.63;;;1.40;88.76
85850;BME280;76337;42.850;-0.560;2024-03-02T07:39:27;87374.06;;;1.47;88.04
85850;BME280;76337;42.850;-0.560;2024-03-02T07:41:53;87371.81;;;1.51;87.66
85850;BME280;76337;42.850;-0.560;2024-03-02T07:44:19;87379.06;;;1.42;88.89
85850;BME280;76337;42.850;-0.560;2024-03-02T07:46:46;87370.91;;;1.40;88.74
85850;BME280;76337;42.850;-0.560;2024-03-02T07:49:12;87374.75;;;1.47;88.33
85850;BME280;76337;42.850;-0.560;2024-03-02T07:51:39;87365.84;;;1.47;89.12
85850;BME280;76337;42.850;-0.560;2024-03-02T07:54:05;87371.81;;;1.51;88.58
85850;BME280;76337;42.850;-0.560;2024-03-02T07:56:32;87363.44;;;1.39;89.54
85850;BME280;76337;42.850;-0.560;2024-03-02T07:58:57;87371.84;;;1.35;89.03
85850;BME280;76337;42.850;-0.560;2024-03-02T08:01:30;87377.25;;;1.37;90.06
85850;BME280;76337;42.850;-0.560;2024-03-02T08:03:57;87354.06;;;1.50;88.91
85850;BME280;76337;42.850;-0.560;2024-03-02T08:06:24;87358.88;;;1.50;89.03
85850;BME280;76337;42.850;-0.560;2024-03-02T08:08:54;87362.44;;;1.46;89.32
85850;BME280;76337;42.850;-0.560;2024-03-02T08:11:21;87356.88;;;1.48;88.78
85850;BME280;76337;42.850;-0.560;2024-03-02T08:13:47;87352.53;;;1.53;88.01
85850;BME280;76337;42.850;-0.560;2024-03-02T08:16:15;87355.09;;;1.58;87.98
85850;BME280;76337;42.850;-0.560;2024-03-02T08:18:42;87359.03;;;1.46;88.73
85850;BME280;76337;42.850;-0.560;2024-03-02T08:21:10;87341.53;;;1.39;89.31
85850;BME280;76337;42.850;-0.560;2024-03-02T08:23:36;87344.94;;;1.39;89.47
85850;BME280;76337;42.850;-0.560;2024-03-02T08:26:03;87348.41;;;1.38;89.74
85850;BME280;76337;42.850;-0.560;2024-03-02T08:28:29;87346.25;;;1.40;89.20
85850;BME280;76337;42.850;-0.560;2024-03-02T08:30:55;87344.09;;;1.43;88.50
85850;BME280;76337;42.850;-0.560;2024-03-02T08:33:22;87346.56;;;1.49;87.68
85850;BME280;76337;42.850;-0.560;2024-03-02T08:35:48;87334.09;;;1.52;88.34
85850;BME280;76337;42.850;-0.560;2024-03-02T08:38:13;87333.53;;;1.49;88.44
85850;BME280;76337;42.850;-0.560;2024-03-02T08:40:39;87340.16;;;1.55;87.72
85850;BME280;76337;42.850;-0.560;2024-03-02T08:43:05;87334.50;;;1.59;87.50
85850;BME280;76337;42.850;-0.560;2024-03-02T08:45:31;87341.88;;;1.62;87.74
85850;BME280;76337;42.850;-0.560;2024-03-02T08:47:57;87330.81;;;1.64;88.17
85850;BME280;76337;42.850;-0.560;2024-03-02T08:50:23;87324.13;;;1.61;87.60
85850;BME280;76337;42.850;-0.560;2024-03-02T08:52:49;87326.28;;;1.59;88.09
85850;BME280;76337;42.850;-0.560;2024-03-02T08:55:15;87323.06;;;1.54;88.19
85850;BME280;76337;42.850;-0.560;2024-03-02T08:57:40;87330.69;;;1.51;88.86
85850;BME280;76337;42.850;-0.560;2024-03-02T09:00:07;87318.91;;;1.55;88.35
85850;BME280;76337;42.850;-0.560;2024-03-02T09:02:34;87331.50;;;1.65;87.21
85850;BME280;76337;42.850;-0.560;2024-03-02T09:05:01;87322.03;;;1.62;87.97
85850;BME280;76337;42.850;-0.560;2024-03-02T09:07:26;87322.59;;;1.64;88.07
85850;BME280;76337;42.850;-0.560;2024-03-02T09:09:52;87316.19;;;1.70;87.51
85850;BME280;76337;42.850;-0.560;2024-03-02T09:12:20;87313.72;;;1.64;87.43
85850;BME280;76337;42.850;-0.560;2024-03-02T09:14:46;87317.13;;;1.64;87.34
85850;BME280;76337;42.850;-0.560;2024-03-02T09:17:12;87323.19;;;1.67;86.62
85850;BME280;76337;42.850;-0.560;2024-03-02T09:19:39;87318.09;;;1.73;86.71
85850;BME280;76337;42.850;-0.560;2024-03-02T09:22:05;87323.19;;;1.67;88.30
85850;BME280;76337;42.850;-0.560;2024-03-02T09:24:31;87306.25;;;1.62;87.78
85850;BME280;76337;42.850;-0.560;2024-03-02T09:26:59;87312.47;;;1.61;87.84
85850;BME280;76337;42.850;-0.560;2024-03-02T09:29:24;87283.00;;;1.61;88.02
85850;BME280;76337;42.850;-0.560;2024-03-02T09:31:50;87310.91;;;1.66;87.05
85850;BME280;76337;42.850;-0.560;2024-03-02T09:34:17;87300.97;;;1.73;87.48
85850;BME280;76337;42.850;-0.560;2024-03-02T09:36:43;87304.97;;;1.76;87.07
85850;BME280;76337;42.850;-0.560;2024-03-02T09:39:09;87300.41;;;1.70;86.80
85850;BME280;76337;42.850;-0.560;2024-03-02T09:41:37;87303.41;;;1.64;87.85
85850;BME280;76337;42.850;-0.560;2024-03-02T09:44:04;87306.06;;;1.66;87.33
85850;BME280;76337;42.850;-0.560;2024-03-02T09:46:31;87300.75;;;1.62;87.95
85850;BME280;76337;42.850;-0.560;2024-03-02T09:48:57;87298.19;;;1.58;87.83
85850;BME280;76337;42.850;-0.560;2024-03-02T09:51:23;87311.06;;;1.62;87.23
85850;BME280;76337;42.850;-0.560;2024-03-02T09:53:49;87299.31;;;1.48;88.23
85850;BME280;76337;42.850;-0.560;2024-03-02T09:56:16;87300.25;;;1.58;88.58
85850;BME280;76337;42.850;-0.560;2024-03-02T09:58:42;87303.94;;;1.52;88.42
85850;BME280;76337;42.850;-0.560;2024-03-02T10:01:09;87308.28;;;1.47;89.03
85850;BME280;76337;42.850;-0.560;2024-03-02T10:03:37;87285.06;;;1.61;87.77
85850;BME280;76337;42.850;-0.560;2024-03-02T10:06:23;87278.22;;;1.60;87.92
85850;BME280;76337;42.850;-0.560;2024-03-02T10:08:50;87274.75;;;1.61;87.62
85850;BME280;76337;42.850;-0.560;2024-03-02T10:11:33;87283.06;;;1.59;87.95
85850;BME280;76337;42.850;-0.560;2024-03-02T10:14:15;87275.03;;;1.55;88.14
85850;BME280;76337;42.850;-0.560;2024-03-02T10:16:44;87269.09;;;1.65;87.63
85850;BME280;76337;42.850;-0.560;2024-03-02T10:19:16;87272.50;;;1.66;88.18
85850;BME280;76337;42.850;-0.560;2024-03-02T10:21:44;87267.75;;;1.64;88.03
85850;BME280;76337;42.850;-0.560;2024-03-02T10:24:10;87263.78;;;1.61;88.42
85850;BME280;76337;42.850;-0.560;2024-03-02T10:26:35;87271.16;;;1.65;87.54
85850;BME280;76337;42.850;-0.560;2024-03-02T10:29:01;87267.41;;;1.72;87.08
85850;BME280;76337;42.850;-0.560;2024-03-02T10:31:28;87270.34;;;1.68;87.65
85850;BME280;76337;42.850;-0.560;2024-03-02T10:33:54;87256.78;;;1.64;88.12
85850;BME280;76337;42.850;-0.560;2024-03-02T10:36:21;87254.03;;;1.64;88.32
85850;BME280;76337;42.850;-0.560;2024-03-02T10:38:47;87254.03;;;1.64;87.90
85850;BME280;76337;42.850;-0.560;2024-03-02T10:41:18;87248.66;;;1.62;88.65
85850;BME280;76337;42.850;-0.560;2024-03-02T10:43:45;87256.78;;;1.64;88.41
85850;BME280;76337;42.850;-0.560;2024-03-02T10:46:13;87233.34;;;1.67;88.33
85850;BME280;76337;42.850;-0.560;2024-03-02T10:48:41;87231.09;;;1.72;87.73
85850;BME280;76337;42.850;-0.560;2024-03-02T10:51:08;87237.59;;;1.64;87.92
85850;BME280;76337;42.850;-0.560;2024-03-02T10:53:34;87231.00;;;1.74;88.55
85850;BME280;76337;42.850;-0.560;2024-03-02T10:56:00;87220.78;;;1.72;87.43
85850;BME280;76337;42.850;-0.560;2024-03-02T10:58:32;87201.78;;;1.68;88.76
85850;BME280;76337;42.850;-0.560;2024-03-02T11:01:00;87212.25;;;1.64;88.16
85850;BME280;76337;42.850;-0.560;2024-03-02T11:03:27;87226.72;;;1.62;88.55
85850;BME280;76337;42.850;-0.560;2024-03-02T11:05:55;87194.75;;;1.71;87.95
85850;BME280;76337;42.850;-0.560;2024-03-02T11:08:23;87197.59;;;1.69;87.95
85850;BME280;76337;42.850;-0.560;2024-03-02T11:10:52;87195.63;;;1.68;88.50
85850;BME280;76337;42.850;-0.560;2024-03-02T11:13:24;87202.22;;;1.58;89.21
85850;BME280;76337;42.850;-0.560;2024-03-02T11:15:59;87195.31;;;1.59;89.31
85850;BME280;76337;42.850;-0.560;2024-03-02T11:18:29;87195.34;;;1.74;87.21
85850;BME280;76337;42.850;-0.560;2024-03-02T11:20:56;87189.94;;;1.72;88.73
85850;BME280;76337;42.850;-0.560;2024-03-02T11:23:32;87202.81;;;1.75;87.64
85850;BME280;76337;42.850;-0.560;2024-03-02T11:26:19;87200.34;;;1.84;86.59
85850;BME280;76337;42.850;-0.560;2024-03-02T11:28:46;87196.59;;;1.91;87.46
85850;BME280;76337;42.850;-0.560;2024-03-02T11:31:11;87193.16;;;1.76;88.49
85850;BME280;76337;42.850;-0.560;2024-03-02T11:33:37;87200.81;;;1.74;88.17
85850;BME280;76337;42.850;-0.560;2024-03-02T11:36:03;87213.69;;;1.77;88.39
85850;BME280;76337;42.850;-0.560;2024-03-02T11:38:33;87204.53;;;1.83;88.16
85850;BME280;76337;42.850;-0.560;2024-03-02T11:41:01;87197.22;;;1.77;88.13
85850;BME280;76337;42.850;-0.560;2024-03-02T11:43:29;87198.00;;;1.76;88.59
85850;BME280;76337;42.850;-0.560;2024-03-02T11:46:00;87206.22;;;1.76;88.48
85850;BME280;76337;42.850;-0.560;2024-03-02T11:48:26;87194.97;;;1.82;87.69
85850;BME280;76337;42.850;-0.560;2024-03-02T11:50:52;87195.34;;;1.74;88.16
85850;BME280;76337;42.850;-0.560;2024-03-02T11:53:20;87204.72;;;1.79;87.35
85850;BME280;76337;42.850;-0.560;2024-03-02T11:55:46;87176.91;;;1.72;87.57
85850;BME280;76337;42.850;-0.560;2024-03-02T11:58:13;87156.47;;;1.84;86.46
85850;BME280;76337;42.850;-0.560;2024-03-02T12:00:39;87161.78;;;1.88;86.46
85850;BME280;76337;42.850;-0.560;2024-03-02T12:03:07;87155.72;;;1.85;87.02
85850;BME280;76337;42.850;-0.560;2024-03-02T12:05:34;87161.69;;;1.90;87.05
85850;BME280;76337;42.850;-0.560;2024-03-02T12:08:02;87146.72;;;1.87;87.09
85850;BME280;76337;42.850;-0.560;2024-03-02T12:10:28;87149.00;;;1.82;87.66
85850;BME280;76337;42.850;-0.560;2024-03-02T12:12:57;87130.63;;;1.93;86.45
85850;BME280;76337;42.850;-0.560;2024-03-02T12:15:26;87134.50;;;1.84;87.54
85850;BME280;76337;42.850;-0.560;2024-03-02T12:17:56;87117.31;;;1.85;86.79
85850;BME280;76337;42.850;-0.560;2024-03-02T12:20:23;87121.75;;;1.93;86.91
85850;BME280;76337;42.850;-0.560;2024-03-02T12:22:51;87101.69;;;1.82;87.95
85850;BME280;76337;42.850;-0.560;2024-03-02T12:25:19;87094.38;;;2.05;85.24
85850;BME280;76337;42.850;-0.560;2024-03-02T12:27:45;87089.75;;;2.02;86.54
85850;BME280;76337;42.850;-0.560;2024-03-02T12:30:12;87092.31;;;1.91;86.34
85850;BME280;76337;42.850;-0.560;2024-03-02T12:32:40;87077.75;;;1.95;87.32
85850;BME280;76337;42.850;-0.560;2024-03-02T12:35:07;87080.22;;;1.86;87.77
85850;BME280;76337;42.850;-0.560;2024-03-02T12:37:32;87067.44;;;1.95;87.27
85850;BME280;76337;42.850;-0.560;2024-03-02T12:39:59;87051.94;;;1.90;87.46
85850;BME280;76337;42.850;-0.560;2024-03-02T12:42:25;87052.47;;;1.92;86.50
85850;BME280;76337;42.850;-0.560;2024-03-02T12:44:52;87043.72;;;1.90;87.13
85850;BME280;76337;42.850;-0.560;2024-03-02T12:47:21;87048.53;;;1.89;87.39
85850;BME280;76337;42.850;-0.560;2024-03-02T12:49:48;87054.88;;;1.86;86.90
85850;BME280;76337;42.850;-0.560;2024-03-02T12:52:14;87026.47;;;1.91;86.70
85850;BME280;76337;42.850;-0.560;2024-03-02T12:54:40;87037.25;;;1.95;86.83
85850;BME280;76337;42.850;-0.560;2024-03-02T12:57:06;87039.34;;;1.95;87.03
85850;BME280;76337;42.850;-0.560;2024-03-02T12:59:32;87049.84;;;1.90;87.15
85850;BME280;76337;42.850;-0.560;2024-03-02T13:01:57;87015.63;;;1.89;87.48